createdAt,value
2019-05-25T00:01:08.487Z,3.33
2019-05-25T00:03:35.291Z,2.90
2019-05-25T00:06:02.193Z,3.00
2019-05-25T00:08:29.260Z,3.30
2019-05-25T00:10:56.254Z,3.70
2019-05-25T00:13:23.158Z,3.10
2019-05-25T00:15:50.175Z,4.30
2019-05-25T00:18:16.986Z,3.80
2019-05-25T00:20:43.866Z,3.30
2019-05-25T00:23:10.874Z,3.43
2019-05-25T00:25:37.658Z,3.03
2019-05-25T00:28:04.678Z,2.77
2019-05-25T00:30:31.596Z,2.73
2019-05-25T00:32:58.485Z,2.93
2019-05-25T00:35:26.167Z,3.23
2019-05-25T00:37:53.101Z,3.20
2019-05-25T00:40:20.033Z,3.10
2019-05-25T00:42:47.014Z,3.00
2019-05-25T00:45:14.112Z,3.93
2019-05-25T00:47:41.002Z,3.20
2019-05-25T00:50:08.035Z,3.30
2019-05-25T00:52:35.125Z,3.10
2019-05-25T00:55:01.985Z,3.33
2019-05-25T00:57:28.904Z,3.03
2019-05-25T00:59:55.744Z,3.20
2019-05-25T01:02:22.537Z,3.00
2019-05-25T01:04:49.481Z,3.00
2019-05-25T01:07:16.381Z,2.97
2019-05-25T01:09:43.185Z,3.13
2019-05-25T01:12:09.986Z,3.30
2019-05-25T01:14:36.782Z,3.60
2019-05-25T01:17:03.829Z,2.87
2019-05-25T01:19:30.886Z,3.43
2019-05-25T01:21:57.707Z,3.20
2019-05-25T01:24:24.533Z,3.43
2019-05-25T01:26:51.330Z,3.30
2019-05-25T01:29:18.237Z,3.37
2019-05-25T01:31:45.401Z,3.17
2019-05-25T01:34:12.262Z,3.03
2019-05-25T01:36:39.106Z,2.90
2019-05-25T01:39:06.293Z,3.23
2019-05-25T01:41:33.083Z,3.17
2019-05-25T01:43:59.933Z,2.80
2019-05-25T01:46:26.750Z,2.77
2019-05-25T01:48:53.567Z,3.20
2019-05-25T01:51:20.359Z,2.73
2019-05-25T01:53:47.198Z,2.90
2019-05-25T01:56:14.090Z,3.23
2019-05-25T01:58:40.889Z,3.10
2019-05-25T02:01:07.813Z,3.60
2019-05-25T02:03:34.730Z,3.13
2019-05-25T02:06:01.780Z,3.30
2019-05-25T02:08:28.822Z,2.80
2019-05-25T02:10:55.628Z,3.27
2019-05-25T02:13:22.654Z,3.00
2019-05-25T02:15:49.590Z,3.17
2019-05-25T02:18:16.507Z,2.67
2019-05-25T02:20:43.313Z,3.33
2019-05-25T02:23:10.280Z,3.90
2019-05-25T02:25:37.166Z,2.93
2019-05-25T02:28:04.650Z,3.13
2019-05-25T02:30:31.570Z,3.23
2019-05-25T02:32:58.581Z,3.33
2019-05-25T02:35:28.069Z,2.80
2019-05-25T02:37:56.289Z,2.90
2019-05-25T02:40:23.482Z,2.97
2019-05-25T02:42:50.405Z,2.87
2019-05-25T02:45:17.408Z,2.93
2019-05-25T02:47:44.200Z,2.77
2019-05-25T02:50:11.346Z,2.83
2019-05-25T02:52:38.218Z,3.10
2019-05-25T02:55:07.113Z,2.80
2019-05-25T02:57:33.948Z,2.90
2019-05-25T03:00:00.951Z,2.80
2019-05-25T03:02:27.857Z,2.70
2019-05-25T03:04:54.909Z,2.87
2019-05-25T03:07:22.110Z,2.67
2019-05-25T03:09:50.299Z,3.30
2019-05-25T03:12:18.021Z,2.63
2019-05-25T03:14:44.812Z,1.90
2019-05-25T03:17:11.784Z,2.43
2019-05-25T03:19:38.586Z,2.90
2019-05-25T03:22:05.590Z,2.67
2019-05-25T03:24:32.544Z,2.30
2019-05-25T03:26:59.322Z,2.50
2019-05-25T03:29:26.233Z,2.10
2019-05-25T03:31:53.103Z,2.50
2019-05-25T03:34:20.000Z,2.47
2019-05-25T03:36:46.790Z,2.53
2019-05-25T03:39:13.670Z,2.50
2019-05-25T03:41:40.595Z,2.57
2019-05-25T03:44:07.473Z,2.30
2019-05-25T03:46:34.322Z,2.10
2019-05-25T03:49:01.249Z,2.10
2019-05-25T03:51:28.190Z,2.27
2019-05-25T03:53:55.113Z,2.63
2019-05-25T03:56:22.113Z,2.10
2019-05-25T03:58:48.951Z,2.40
2019-05-25T04:01:15.833Z,2.20
2019-05-25T04:03:42.640Z,2.40
2019-05-25T04:06:09.570Z,2.10
2019-05-25T04:08:36.357Z,2.30
2019-05-25T04:11:03.480Z,2.30
2019-05-25T04:13:30.292Z,2.10
2019-05-25T04:16:00.111Z,2.17
2019-05-25T04:18:26.960Z,2.37
2019-05-25T04:20:53.817Z,2.50
2019-05-25T04:23:20.652Z,3.17
2019-05-25T04:25:47.731Z,2.27
2019-05-25T04:28:14.504Z,2.60
2019-05-25T04:30:41.331Z,2.30
2019-05-25T04:33:08.209Z,2.87
2019-05-25T04:35:35.093Z,2.60
2019-05-25T04:38:05.664Z,2.67
2019-05-25T04:40:32.742Z,2.97
2019-05-25T04:42:59.687Z,2.20
2019-05-25T04:45:26.491Z,2.80
2019-05-25T04:47:53.386Z,2.70
2019-05-25T04:50:20.427Z,2.47
2019-05-25T04:52:47.233Z,2.60
2019-05-25T04:55:14.459Z,2.77
2019-05-25T04:57:41.480Z,2.50
2019-05-25T05:00:08.779Z,2.30
2019-05-25T05:02:35.584Z,2.60
2019-05-25T05:05:03.259Z,2.37
2019-05-25T05:07:30.064Z,2.77
2019-05-25T05:10:02.778Z,2.43
2019-05-25T05:12:25.623Z,2.60
2019-05-25T05:14:52.410Z,2.67
2019-05-25T05:17:19.303Z,2.23
2019-05-25T05:19:46.113Z,3.00
2019-05-25T05:22:13.004Z,2.63
2019-05-25T05:24:39.857Z,2.37
2019-05-25T05:27:06.755Z,2.67
2019-05-25T05:29:33.659Z,2.70
2019-05-25T05:32:06.591Z,2.73
2019-05-25T05:34:33.675Z,2.57
2019-05-25T05:37:01.781Z,2.53
2019-05-25T05:39:29.610Z,3.03
2019-05-25T05:41:59.321Z,2.60
2019-05-25T05:44:27.429Z,2.97
2019-05-25T05:46:56.355Z,2.40
2019-05-25T05:49:23.748Z,2.80
2019-05-25T05:51:53.181Z,2.50
2019-05-25T05:54:20.381Z,2.87
2019-05-25T05:56:47.817Z,3.00
2019-05-25T05:59:14.758Z,2.60
2019-05-25T06:01:41.556Z,2.73
2019-05-25T06:04:08.470Z,2.40
2019-05-25T06:06:35.303Z,2.87
2019-05-25T06:09:04.095Z,2.87
2019-05-25T06:11:30.950Z,2.43
2019-05-25T06:13:57.756Z,3.17
2019-05-25T06:16:24.671Z,2.43
2019-05-25T06:18:51.742Z,2.37
2019-05-25T06:21:18.658Z,2.43
2019-05-25T06:23:45.568Z,1.97
2019-05-25T06:26:12.511Z,2.30
2019-05-25T06:28:39.311Z,2.37
2019-05-25T06:31:06.290Z,2.13
2019-05-25T06:33:33.261Z,2.27
2019-05-25T06:36:00.048Z,2.20
2019-05-25T06:38:27.003Z,2.27
2019-05-25T06:40:53.930Z,1.53
2019-05-25T06:43:20.762Z,1.97
2019-05-25T06:45:47.615Z,2.20
2019-05-25T06:48:14.506Z,2.20
2019-05-25T06:50:41.403Z,2.10
2019-05-25T06:53:08.349Z,1.90
2019-05-25T06:55:35.456Z,2.10
2019-05-25T06:58:02.427Z,2.70
2019-05-25T07:00:29.503Z,1.77
2019-05-25T07:02:57.014Z,1.93
2019-05-25T07:05:23.914Z,1.83
2019-05-25T07:07:54.388Z,2.03
2019-05-25T07:10:19.883Z,2.60
2019-05-25T07:12:46.883Z,2.20
2019-05-25T07:15:14.347Z,2.13
2019-05-25T07:17:41.270Z,1.60
2019-05-25T07:20:08.883Z,1.87
2019-05-25T07:22:35.963Z,1.70
2019-05-25T07:25:04.870Z,2.10
2019-05-25T07:27:31.874Z,2.30
2019-05-25T07:29:58.746Z,1.87
2019-05-25T07:32:25.678Z,1.80
2019-05-25T07:34:52.583Z,2.00
2019-05-25T07:37:19.446Z,2.50
2019-05-25T07:39:46.360Z,1.83
2019-05-25T07:42:13.192Z,2.20
2019-05-25T07:44:40.214Z,1.90
2019-05-25T07:47:07.118Z,2.07
2019-05-25T07:49:33.923Z,2.03
2019-05-25T07:52:02.725Z,1.80
2019-05-25T07:54:29.614Z,1.70
2019-05-25T07:56:56.619Z,2.03
2019-05-25T07:59:23.578Z,2.30
2019-05-25T08:01:50.374Z,2.00
2019-05-25T08:04:17.365Z,2.37
2019-05-25T08:06:44.222Z,2.30
2019-05-25T08:09:11.157Z,1.90
2019-05-25T08:11:38.006Z,2.00
2019-05-25T08:14:05.034Z,1.93
2019-05-25T08:16:31.949Z,2.50
2019-05-25T08:18:58.809Z,2.30
2019-05-25T08:21:25.677Z,2.07
2019-05-25T08:23:52.609Z,2.03
2019-05-25T08:26:19.510Z,2.60
2019-05-25T08:28:46.452Z,2.47
2019-05-25T08:31:13.251Z,2.00
2019-05-25T08:33:40.053Z,2.20
2019-05-25T08:36:07.043Z,2.03
2019-05-25T08:38:33.826Z,2.20
2019-05-25T08:41:00.741Z,2.27
2019-05-25T08:43:27.658Z,2.33
2019-05-25T08:45:54.466Z,2.20
2019-05-25T08:48:21.646Z,2.60
2019-05-25T08:50:48.630Z,2.00
2019-05-25T08:53:15.530Z,2.13
2019-05-25T08:55:42.349Z,2.43
2019-05-25T08:58:09.236Z,2.20
2019-05-25T09:00:36.170Z,2.20
2019-05-25T09:03:03.219Z,3.30
2019-05-25T09:05:30.193Z,2.30
2019-05-25T09:07:57.100Z,2.27
2019-05-25T09:10:24.133Z,2.10
2019-05-25T09:12:50.923Z,2.00
2019-05-25T09:15:17.941Z,2.47
2019-05-25T09:17:44.781Z,2.40
2019-05-25T09:20:13.198Z,2.27
2019-05-25T09:22:40.294Z,2.30
2019-05-25T09:25:07.585Z,2.30
2019-05-25T09:27:34.504Z,2.30
2019-05-25T09:30:02.533Z,2.10
2019-05-25T09:32:29.534Z,2.03
2019-05-25T09:34:56.502Z,2.70
2019-05-25T09:37:43.627Z,2.20
2019-05-25T09:40:12.006Z,2.27
2019-05-25T09:42:39.324Z,1.93
2019-05-25T09:45:07.806Z,2.20
2019-05-25T09:47:34.741Z,2.20
2019-05-25T09:50:01.818Z,2.30
2019-05-25T09:52:28.838Z,2.30
2019-05-25T09:54:55.830Z,2.50
2019-05-25T09:57:22.793Z,2.47
2019-05-25T09:59:49.599Z,2.17
2019-05-25T10:02:16.601Z,2.13
2019-05-25T10:04:43.565Z,2.40
2019-05-25T10:07:10.574Z,2.37
2019-05-25T10:09:40.062Z,2.40
2019-05-25T10:12:08.510Z,2.80
2019-05-25T10:14:35.638Z,2.10
2019-05-25T10:17:04.675Z,2.60
2019-05-25T10:19:31.656Z,3.03
2019-05-25T10:21:59.527Z,2.10
2019-05-25T10:24:26.787Z,2.10
2019-05-25T10:26:53.745Z,2.70
2019-05-25T10:29:36.040Z,2.27
2019-05-25T10:31:49.299Z,2.60
2019-05-25T10:34:16.345Z,3.07
2019-05-25T10:36:43.146Z,2.10
2019-05-25T10:39:10.080Z,2.50
2019-05-25T10:41:36.960Z,2.63
2019-05-25T10:44:04.260Z,2.37
2019-05-25T10:46:31.270Z,2.40
2019-05-25T10:48:58.264Z,2.57
2019-05-25T10:51:25.291Z,2.57
2019-05-25T10:53:52.222Z,3.00
2019-05-25T10:56:19.178Z,2.63
2019-05-25T10:58:46.243Z,2.40
2019-05-25T11:01:13.182Z,2.63
2019-05-25T11:03:40.292Z,2.53
2019-05-25T11:06:07.237Z,3.00
2019-05-25T11:08:34.044Z,2.70
2019-05-25T11:11:00.996Z,2.83
2019-05-25T11:13:27.833Z,3.23
2019-05-25T11:15:54.742Z,2.93
2019-05-25T11:18:21.855Z,3.40
2019-05-25T11:20:48.866Z,2.80
2019-05-25T11:23:15.893Z,2.70
2019-05-25T11:25:42.790Z,2.60
2019-05-25T11:28:09.701Z,2.77
2019-05-25T11:30:36.667Z,2.87
2019-05-25T11:33:03.667Z,2.67
2019-05-25T11:35:30.593Z,3.23
2019-05-25T11:37:57.650Z,3.03
2019-05-25T11:40:24.772Z,2.60
2019-05-25T11:42:51.701Z,2.77
2019-05-25T11:45:18.984Z,2.73
2019-05-25T11:47:45.914Z,3.00
2019-05-25T11:50:13.561Z,3.50
2019-05-25T11:52:40.748Z,2.40
2019-05-25T11:55:08.364Z,2.53
2019-05-25T11:57:35.266Z,2.43
2019-05-25T12:00:02.593Z,2.67
2019-05-25T12:02:29.501Z,2.60
2019-05-25T12:04:56.420Z,2.50
2019-05-25T12:07:23.370Z,2.60
2019-05-25T12:09:50.275Z,2.60
2019-05-25T12:12:17.198Z,2.50
2019-05-25T12:14:44.070Z,2.67
2019-05-25T12:17:10.962Z,2.47
2019-05-25T12:19:37.978Z,2.80
2019-05-25T12:22:04.947Z,2.80
2019-05-25T12:24:31.771Z,3.30
2019-05-25T12:26:58.698Z,2.53
2019-05-25T12:29:25.502Z,2.43
2019-05-25T12:32:03.393Z,3.10
2019-05-25T12:34:21.470Z,2.80
2019-05-25T12:36:48.277Z,2.80
2019-05-25T12:39:15.072Z,3.40
2019-05-25T12:41:41.959Z,3.00
2019-05-25T12:44:08.777Z,2.40
2019-05-25T12:46:35.689Z,3.03
2019-05-25T12:49:02.960Z,2.90
2019-05-25T12:51:29.771Z,2.63
2019-05-25T12:53:56.646Z,2.70
2019-05-25T12:56:23.417Z,2.90
2019-05-25T12:58:50.435Z,2.50
2019-05-25T13:01:17.488Z,2.90
2019-05-25T13:03:44.310Z,2.87
2019-05-25T13:06:11.197Z,2.77
2019-05-25T13:08:38.229Z,2.40
2019-05-25T13:11:05.058Z,3.10
2019-05-25T13:13:32.100Z,2.50
2019-05-25T13:15:58.919Z,2.60
2019-05-25T13:18:25.720Z,3.23
2019-05-25T13:20:52.688Z,2.60
2019-05-25T13:23:19.521Z,2.67
2019-05-25T13:25:46.526Z,2.87
2019-05-25T13:28:13.381Z,2.50
2019-05-25T13:30:40.285Z,2.77
2019-05-25T13:33:07.086Z,2.60
2019-05-25T13:35:34.198Z,2.87
2019-05-25T13:38:01.210Z,2.67
2019-05-25T13:40:28.108Z,2.90
2019-05-25T13:42:55.028Z,2.33
2019-05-25T13:45:22.030Z,2.90
2019-05-25T13:47:48.851Z,2.80
2019-05-25T13:50:15.883Z,2.60
2019-05-25T13:52:42.845Z,2.80
2019-05-25T13:55:10.364Z,2.73
2019-05-25T13:57:37.441Z,2.83
2019-05-25T14:00:04.843Z,3.20
2019-05-25T14:02:31.847Z,2.77
2019-05-25T14:04:58.795Z,2.73
2019-05-25T14:07:25.691Z,2.93
2019-05-25T14:09:52.497Z,2.83
2019-05-25T14:12:19.454Z,2.83
2019-05-25T14:14:46.400Z,2.17
2019-05-25T14:17:13.422Z,2.83
2019-05-25T14:19:41.516Z,2.20
2019-05-25T14:22:08.638Z,2.13
2019-05-25T14:24:35.426Z,3.07
2019-05-25T14:27:03.515Z,2.67
2019-05-25T14:29:30.557Z,2.53
2019-05-25T14:31:57.518Z,2.57
2019-05-25T14:34:24.326Z,2.50
2019-05-25T14:36:51.205Z,3.27
2019-05-25T14:39:18.295Z,2.47
2019-05-25T14:41:45.658Z,2.33
2019-05-25T14:44:12.687Z,2.10
2019-05-25T14:46:39.632Z,2.13
2019-05-25T14:49:06.599Z,2.73
2019-05-25T14:51:34.084Z,2.33
2019-05-25T14:54:01.033Z,2.17
2019-05-25T14:56:27.859Z,2.10
2019-05-25T14:58:55.228Z,2.97
2019-05-25T15:01:23.241Z,2.63
2019-05-25T15:03:50.383Z,2.37
2019-05-25T15:06:20.842Z,2.10
2019-05-25T15:08:46.438Z,2.37
2019-05-25T15:11:13.368Z,2.10
2019-05-25T15:13:40.467Z,2.37
2019-05-25T15:16:07.795Z,2.20
2019-05-25T15:18:35.015Z,2.27
2019-05-25T15:21:02.379Z,2.27
2019-05-25T15:23:31.925Z,2.47
2019-05-25T15:25:59.713Z,1.90
2019-05-25T15:28:27.110Z,1.97
2019-05-25T15:30:56.715Z,1.90
2019-05-25T15:33:24.059Z,2.03
2019-05-25T15:35:58.105Z,2.10
2019-05-25T15:38:27.454Z,2.07
2019-05-25T15:40:54.528Z,1.60
2019-05-25T15:43:21.797Z,2.00
2019-05-25T15:45:49.513Z,1.77
2019-05-25T15:48:17.178Z,2.40
2019-05-25T15:50:44.833Z,1.70
2019-05-25T15:53:12.114Z,2.07
2019-05-25T15:55:39.618Z,2.23
2019-05-25T15:58:08.011Z,1.80
2019-05-25T16:00:44.500Z,1.60
2019-05-25T16:03:11.609Z,1.90
2019-05-25T16:05:39.033Z,2.23
2019-05-25T16:08:06.109Z,2.40
2019-05-25T16:10:36.750Z,2.00
2019-05-25T16:13:03.797Z,2.03
2019-05-25T16:15:31.225Z,1.93
2019-05-25T16:17:58.359Z,1.70
2019-05-25T16:20:25.774Z,1.80
2019-05-25T16:22:52.851Z,1.70
2019-05-25T16:25:19.806Z,2.40
2019-05-25T16:27:48.222Z,2.13
2019-05-25T16:30:15.583Z,1.60
2019-05-25T16:35:12.166Z,1.50
2019-05-25T16:37:39.635Z,1.80
2019-05-25T16:40:08.142Z,1.73
2019-05-25T16:42:35.470Z,1.53
2019-05-25T16:45:05.814Z,1.70
2019-05-25T16:47:31.816Z,1.30
2019-05-25T16:49:58.799Z,1.50
2019-05-25T16:52:25.652Z,1.37
2019-05-25T16:54:52.618Z,1.30
2019-05-25T16:57:19.689Z,1.63
2019-05-25T16:59:46.766Z,1.40
2019-05-25T17:02:14.124Z,1.67
2019-05-25T17:04:42.259Z,1.63
2019-05-25T17:07:10.709Z,1.60
2019-05-25T17:09:37.927Z,1.97
2019-05-25T17:12:07.199Z,1.83
2019-05-25T17:14:34.283Z,1.50
2019-05-25T17:17:01.816Z,1.90
2019-05-25T17:19:29.518Z,2.10
2019-05-25T17:21:56.787Z,1.63
2019-05-25T17:24:23.823Z,1.73
2019-05-25T17:26:50.853Z,1.70
2019-05-25T17:29:17.696Z,1.20
2019-05-25T17:31:44.765Z,1.60
2019-05-25T17:34:11.671Z,1.40
2019-05-25T17:36:38.527Z,1.47
2019-05-25T17:39:06.179Z,1.53
2019-05-25T17:41:33.226Z,1.60
2019-05-25T17:44:00.339Z,1.60
2019-05-25T17:46:27.258Z,1.60
2019-05-25T17:48:54.171Z,1.83
2019-05-25T17:51:21.093Z,1.70
2019-05-25T17:53:47.997Z,1.63
2019-05-25T17:56:14.935Z,1.90
2019-05-25T17:58:42.110Z,1.57
2019-05-25T18:01:09.149Z,1.67
2019-05-25T18:03:35.993Z,1.53
2019-05-25T18:06:03.264Z,1.80
2019-05-25T18:08:30.207Z,2.70
2019-05-25T18:10:57.248Z,2.20
2019-05-25T18:13:24.324Z,1.80
2019-05-25T18:15:51.266Z,2.07
2019-05-25T18:18:18.278Z,2.03
2019-05-25T18:20:45.161Z,2.00
2019-05-25T18:23:12.067Z,1.97
2019-05-25T18:25:39.096Z,2.10
2019-05-25T18:28:06.317Z,2.13
2019-05-25T18:30:33.427Z,1.63
2019-05-25T18:33:00.285Z,2.10
2019-05-25T18:35:27.347Z,1.90
2019-05-25T18:37:54.177Z,2.27
2019-05-25T18:40:21.246Z,2.53
2019-05-25T18:42:48.177Z,1.97
2019-05-25T18:45:15.602Z,2.20
2019-05-25T18:47:42.752Z,2.17
2019-05-25T18:50:10.276Z,1.87
2019-05-25T18:52:37.278Z,2.10
2019-05-25T18:55:04.837Z,2.23
2019-05-25T18:57:31.760Z,1.93
2019-05-25T18:59:58.753Z,2.13
2019-05-25T19:02:25.874Z,2.30
2019-05-25T19:04:59.582Z,1.90
2019-05-25T19:07:21.695Z,2.07
2019-05-25T19:09:48.531Z,2.50
2019-05-25T19:12:15.330Z,2.50
2019-05-25T19:14:42.237Z,2.00
2019-05-25T19:17:09.209Z,1.80
2019-05-25T19:19:36.129Z,1.97
2019-05-25T19:22:03.134Z,1.87
2019-05-25T19:24:30.101Z,2.33
2019-05-25T19:26:57.086Z,2.10
2019-05-25T19:29:23.935Z,1.80
2019-05-25T19:31:50.858Z,1.77
2019-05-25T19:34:17.759Z,1.70
2019-05-25T19:36:44.790Z,2.00
2019-05-25T19:39:11.658Z,1.70
2019-05-25T19:41:38.563Z,1.50
2019-05-25T19:44:05.596Z,1.40
2019-05-25T19:46:32.525Z,1.20
2019-05-25T19:48:59.347Z,1.40
2019-05-25T19:51:26.161Z,1.23
2019-05-25T19:53:53.142Z,1.30
2019-05-25T19:56:20.238Z,1.23
2019-05-25T19:58:47.074Z,1.00
2019-05-25T20:01:14.107Z,1.53
2019-05-25T20:03:41.145Z,1.10
2019-05-25T20:06:07.953Z,1.07
2019-05-25T20:08:35.032Z,1.17
2019-05-25T20:11:01.933Z,1.43
2019-05-25T20:13:28.831Z,1.10
2019-05-25T20:15:55.655Z,1.90
2019-05-25T20:18:22.477Z,1.10
2019-05-25T20:20:49.284Z,1.60
2019-05-25T20:23:16.106Z,1.33
2019-05-25T20:25:43.051Z,1.10
2019-05-25T20:28:09.934Z,1.23
2019-05-25T20:30:36.771Z,1.57
2019-05-25T20:33:03.762Z,1.13
2019-05-25T20:35:33.409Z,1.30
2019-05-25T20:37:59.440Z,1.10
2019-05-25T20:40:26.235Z,1.20
2019-05-25T20:42:53.169Z,1.10
2019-05-25T20:45:20.193Z,1.23
2019-05-25T20:47:47.225Z,0.90
2019-05-25T20:50:15.013Z,1.27
2019-05-25T20:52:41.854Z,1.40
2019-05-25T20:55:09.764Z,1.30
2019-05-25T20:57:36.684Z,1.10
2019-05-25T21:00:04.173Z,1.30
2019-05-25T21:02:31.001Z,1.50
2019-05-25T21:04:58.878Z,1.30
2019-05-25T21:07:25.687Z,1.30
2019-05-25T21:09:52.567Z,1.10
2019-05-25T21:12:19.422Z,1.43
2019-05-25T21:14:46.294Z,1.20
2019-05-25T21:17:13.165Z,1.27
2019-05-25T21:19:40.012Z,1.40
2019-05-25T21:22:06.902Z,1.30
2019-05-25T21:24:33.817Z,1.40
2019-05-25T21:27:00.852Z,0.90
2019-05-25T21:29:27.652Z,1.57
2019-05-25T21:31:54.552Z,1.20
2019-05-25T21:34:21.383Z,1.00
2019-05-25T21:36:48.213Z,1.10
2019-05-25T21:39:15.224Z,1.27
2019-05-25T21:41:42.086Z,0.90
2019-05-25T21:44:08.993Z,1.10
2019-05-25T21:46:35.931Z,1.20
2019-05-25T21:49:03.072Z,1.17
2019-05-25T21:51:30.121Z,1.10
2019-05-25T21:53:56.925Z,1.10
2019-05-25T21:56:23.879Z,1.03
2019-05-25T21:58:50.715Z,1.00
2019-05-25T22:01:17.737Z,1.00
2019-05-25T22:03:44.767Z,1.30
2019-05-25T22:06:23.924Z,1.20
2019-05-25T22:08:40.500Z,1.23
2019-05-25T22:11:07.454Z,1.57
2019-05-25T22:13:34.277Z,1.50
2019-05-25T22:16:01.177Z,1.60
2019-05-25T22:18:28.152Z,1.30
2019-05-25T22:20:54.946Z,1.40
2019-05-25T22:23:21.773Z,1.63
2019-05-25T22:25:48.607Z,1.77
2019-05-25T22:28:15.399Z,1.50
2019-05-25T22:30:42.450Z,1.73
2019-05-25T22:33:09.294Z,1.60
2019-05-25T22:35:36.284Z,1.37
2019-05-25T22:38:03.403Z,1.70
2019-05-25T22:40:30.461Z,1.53
2019-05-25T22:42:57.746Z,1.60
2019-05-25T22:45:24.758Z,1.90
2019-05-25T22:47:51.706Z,1.30
2019-05-25T22:50:18.889Z,1.40
2019-05-25T22:52:45.707Z,1.40
2019-05-25T22:55:12.942Z,1.20
2019-05-25T22:57:39.754Z,1.17
2019-05-25T23:00:09.579Z,0.90
2019-05-25T23:02:36.723Z,0.70
2019-05-25T23:05:07.125Z,1.10
2019-05-25T23:07:32.937Z,1.00
2019-05-25T23:09:59.982Z,1.17
2019-05-25T23:12:26.791Z,1.10
2019-05-25T23:14:53.595Z,0.90
2019-05-25T23:17:20.500Z,0.63
2019-05-25T23:19:47.305Z,0.90
2019-05-25T23:22:14.245Z,1.03
2019-05-25T23:24:41.042Z,1.10
2019-05-25T23:27:07.934Z,1.07
2019-05-25T23:29:34.887Z,0.97
2019-05-25T23:32:01.798Z,1.57
2019-05-25T23:34:28.606Z,1.23
2019-05-25T23:36:55.402Z,1.50
2019-05-25T23:39:22.345Z,1.20
2019-05-25T23:41:49.187Z,1.00
2019-05-25T23:44:16.010Z,1.23
2019-05-25T23:46:42.955Z,1.60
2019-05-25T23:49:09.895Z,1.30
2019-05-25T23:51:36.808Z,1.33
2019-05-25T23:54:03.837Z,1.20
2019-05-25T23:56:30.956Z,1.47
2019-05-25T23:58:57.744Z,1.43
